createdAt,value
2022-08-25T00:00:57.236Z,4.78
2022-08-25T00:03:45.795Z,4.43
2022-08-25T00:06:33.736Z,4.68
2022-08-25T00:09:22.630Z,4.55
2022-08-25T00:12:10.532Z,4.82
2022-08-25T00:15:00.137Z,5.22
2022-08-25T00:17:47.563Z,5.15
2022-08-25T00:20:35.453Z,4.97
2022-08-25T00:23:23.471Z,4.88
2022-08-25T00:26:11.606Z,5.30
2022-08-25T00:29:01.973Z,5.25
2022-08-25T00:31:49.961Z,5.10
2022-08-25T00:34:38.934Z,5.97
2022-08-25T00:37:26.356Z,6.10
2022-08-25T00:40:14.119Z,5.88
2022-08-25T00:43:01.895Z,6.53
2022-08-25T00:45:49.845Z,8.13
2022-08-25T00:48:39.218Z,6.13
2022-08-25T00:51:39.767Z,5.63
2022-08-25T00:54:33.498Z,5.97
2022-08-25T00:57:34.197Z,6.03
2022-08-25T01:00:29.294Z,6.03
2022-08-25T01:03:19.041Z,5.95
2022-08-25T01:06:07.330Z,5.45
2022-08-25T01:08:54.864Z,6.28
2022-08-25T01:11:44.796Z,5.40
2022-08-25T01:14:33.150Z,5.43
2022-08-25T01:17:22.333Z,5.38
2022-08-25T01:20:11.577Z,5.70
2022-08-25T01:23:00.033Z,6.20
2022-08-25T01:25:53.495Z,6.10
2022-08-25T01:29:03.300Z,5.35
2022-08-25T01:31:51.590Z,6.72
2022-08-25T01:34:41.851Z,5.20
2022-08-25T01:37:29.352Z,4.78
2022-08-25T01:40:17.404Z,5.45
2022-08-25T01:43:08.428Z,5.50
2022-08-25T01:45:56.031Z,5.20
2022-08-25T01:48:43.891Z,5.63
2022-08-25T01:51:34.371Z,5.00
2022-08-25T01:54:22.251Z,6.35
2022-08-25T01:57:09.698Z,5.30
2022-08-25T01:59:57.580Z,5.45
2022-08-25T02:02:45.175Z,4.82
2022-08-25T02:05:33.747Z,5.28
2022-08-25T02:08:23.468Z,5.25
2022-08-25T02:11:12.687Z,5.05
2022-08-25T02:14:01.415Z,5.28
2022-08-25T02:16:51.366Z,5.00
2022-08-25T02:19:39.189Z,5.40
2022-08-25T02:22:27.255Z,5.07
2022-08-25T02:25:16.260Z,5.32
2022-08-25T02:28:04.179Z,5.80
2022-08-25T02:30:53.176Z,5.72
2022-08-25T02:33:47.078Z,5.22
2022-08-25T02:36:35.022Z,4.82
2022-08-25T02:39:22.650Z,5.05
2022-08-25T02:42:10.643Z,5.20
2022-08-25T02:44:58.527Z,5.20
2022-08-25T02:47:46.484Z,5.72
2022-08-25T02:50:34.237Z,6.43
2022-08-25T02:53:22.300Z,6.15
2022-08-25T02:56:10.824Z,7.65
2022-08-25T02:58:58.670Z,6.82
2022-08-25T03:01:46.425Z,7.35
2022-08-25T03:04:34.375Z,8.10
2022-08-25T03:07:22.052Z,8.23
2022-08-25T03:10:15.518Z,8.25
2022-08-25T03:13:03.258Z,8.38
2022-08-25T03:15:52.245Z,7.03
2022-08-25T03:18:42.764Z,6.35
2022-08-25T03:21:31.108Z,5.70
2022-08-25T03:24:18.409Z,5.72
2022-08-25T03:27:06.044Z,5.57
2022-08-25T03:29:55.510Z,5.30
2022-08-25T03:32:43.701Z,5.68
2022-08-25T03:35:31.155Z,5.07
2022-08-25T03:38:19.508Z,6.20
2022-08-25T03:41:15.385Z,5.55
2022-08-25T03:44:04.401Z,5.70
2022-08-25T03:46:53.067Z,5.20
2022-08-25T03:49:40.566Z,6.05
2022-08-25T03:52:28.397Z,6.97
2022-08-25T03:55:16.596Z,8.27
2022-08-25T03:58:04.176Z,7.10
2022-08-25T04:00:51.858Z,6.32
2022-08-25T04:03:39.482Z,6.75
2022-08-25T04:06:26.953Z,5.95
2022-08-25T04:09:14.372Z,6.80
2022-08-25T04:12:02.254Z,6.70
2022-08-25T04:14:50.356Z,6.78
2022-08-25T04:17:40.267Z,6.18
2022-08-25T04:20:28.309Z,6.68
2022-08-25T04:23:15.787Z,6.47
2022-08-25T04:26:03.906Z,5.75
2022-08-25T04:28:51.560Z,5.90
2022-08-25T04:31:43.786Z,5.95
2022-08-25T04:34:31.641Z,4.95
2022-08-25T04:37:19.656Z,4.82
2022-08-25T04:40:07.355Z,5.00
2022-08-25T04:42:55.254Z,4.93
2022-08-25T04:45:42.621Z,5.10
2022-08-25T04:48:30.607Z,5.28
2022-08-25T04:51:19.507Z,5.13
2022-08-25T04:54:09.798Z,5.50
2022-08-25T04:56:58.736Z,4.85
2022-08-25T04:59:46.791Z,4.65
2022-08-25T05:02:34.743Z,5.22
2022-08-25T05:05:23.497Z,5.18
2022-08-25T05:08:11.042Z,5.28
2022-08-25T05:10:59.062Z,6.25
2022-08-25T05:13:51.697Z,6.30
2022-08-25T05:16:40.616Z,6.47
2022-08-25T05:19:28.416Z,6.72
2022-08-25T05:22:15.717Z,7.10
2022-08-25T05:25:04.107Z,6.30
2022-08-25T05:27:51.496Z,7.00
2022-08-25T05:30:40.588Z,7.32
2022-08-25T05:33:30.599Z,8.38
2022-08-25T05:36:21.436Z,7.70
2022-08-25T05:39:09.752Z,6.68
2022-08-25T05:42:01.078Z,7.13
2022-08-25T05:44:48.513Z,7.32
2022-08-25T05:47:36.484Z,7.00
2022-08-25T05:50:23.947Z,7.38
2022-08-25T05:53:11.818Z,8.07
2022-08-25T05:55:59.755Z,8.35
2022-08-25T05:58:47.393Z,9.38
2022-08-25T06:01:53.468Z,9.02
2022-08-25T06:04:41.484Z,8.57
2022-08-25T06:07:32.836Z,8.90
2022-08-25T06:10:21.424Z,8.80
2022-08-25T06:13:09.137Z,8.02
2022-08-25T06:16:01.561Z,8.23
2022-08-25T06:18:49.446Z,8.93
2022-08-25T06:21:39.127Z,8.55
2022-08-25T06:24:27.279Z,7.43
2022-08-25T06:27:15.184Z,8.45
2022-08-25T06:30:04.769Z,7.75
2022-08-25T06:32:55.555Z,7.13
2022-08-25T06:35:43.890Z,8.25
2022-08-25T06:38:32.568Z,7.68
2022-08-25T06:41:16.324Z,7.65
2022-08-25T06:44:04.744Z,6.95
2022-08-25T06:46:52.976Z,7.60
2022-08-25T06:49:40.852Z,7.03
2022-08-25T06:52:29.280Z,6.95
2022-08-25T06:55:17.468Z,7.25
2022-08-25T06:58:05.576Z,7.03
2022-08-25T07:00:57.882Z,6.63
2022-08-25T07:03:45.749Z,6.72
2022-08-25T07:06:38.130Z,6.70
2022-08-25T07:09:25.574Z,6.28
2022-08-25T07:12:13.457Z,7.32
2022-08-25T07:15:19.232Z,5.68
2022-08-25T07:18:08.672Z,6.50
2022-08-25T07:20:56.812Z,5.90
2022-08-25T07:23:44.740Z,5.75
2022-08-25T07:26:37.887Z,5.70
2022-08-25T07:29:32.689Z,5.45
2022-08-25T07:32:20.551Z,5.18
2022-08-25T07:35:19.682Z,5.65
2022-08-25T07:38:13.011Z,6.07
2022-08-25T07:41:04.503Z,5.55
2022-08-25T07:43:51.934Z,5.57
2022-08-25T07:46:41.362Z,5.78
2022-08-25T07:49:36.143Z,5.60
2022-08-25T07:52:28.483Z,4.93
2022-08-25T07:55:17.833Z,5.63
2022-08-25T07:58:06.739Z,5.28
2022-08-25T08:00:54.234Z,5.38
2022-08-25T08:03:50.648Z,6.05
2022-08-25T08:06:40.868Z,5.28
2022-08-25T08:09:31.725Z,6.18
2022-08-25T08:12:19.574Z,4.50
2022-08-25T08:15:10.458Z,5.07
2022-08-25T08:17:59.109Z,4.95
2022-08-25T08:20:48.656Z,4.45
2022-08-25T08:23:36.339Z,4.35
2022-08-25T08:26:36.328Z,4.53
2022-08-25T08:29:33.015Z,4.82
2022-08-25T08:32:20.741Z,5.00
2022-08-25T08:35:13.402Z,4.78
2022-08-25T08:38:01.079Z,4.78
2022-08-25T08:41:26.288Z,5.88
2022-08-25T08:44:26.977Z,4.68
2022-08-25T08:47:17.789Z,5.10
2022-08-25T08:50:23.974Z,5.00
2022-08-25T08:53:52.796Z,5.05
2022-08-25T08:56:45.235Z,4.80
2022-08-25T08:59:45.247Z,5.20
2022-08-25T09:02:51.942Z,4.78
2022-08-25T09:05:50.616Z,4.28
2022-08-25T09:08:38.977Z,4.82
2022-08-25T09:11:50.528Z,3.92
2022-08-25T09:14:56.483Z,4.35
2022-08-25T09:17:54.677Z,4.20
2022-08-25T09:20:50.082Z,4.30
2022-08-25T09:23:53.314Z,4.63
2022-08-25T09:26:45.784Z,4.15
2022-08-25T09:29:43.734Z,4.78
2022-08-25T09:32:33.183Z,4.07
2022-08-25T09:35:23.720Z,4.72
2022-08-25T09:38:12.262Z,4.55
2022-08-25T09:41:01.026Z,4.93
2022-08-25T09:43:55.428Z,4.53
2022-08-25T09:46:55.039Z,4.20
2022-08-25T09:49:45.196Z,3.95
2022-08-25T09:52:36.597Z,4.05
2022-08-25T09:55:29.969Z,4.22
2022-08-25T09:58:22.652Z,3.97
2022-08-25T10:01:20.696Z,4.00
2022-08-25T10:04:19.032Z,4.35
2022-08-25T10:07:30.368Z,4.05
2022-08-25T10:10:32.430Z,4.05
2022-08-25T10:13:22.969Z,3.88
2022-08-25T10:16:27.757Z,4.13
2022-08-25T10:19:28.465Z,4.38
2022-08-25T10:22:31.726Z,4.32
2022-08-25T10:25:29.762Z,4.30
2022-08-25T10:28:20.276Z,4.40
2022-08-25T10:31:34.821Z,4.40
2022-08-25T10:34:35.647Z,3.63
2022-08-25T10:37:44.084Z,4.03
2022-08-25T10:40:43.944Z,4.03
2022-08-25T10:43:49.942Z,4.13
2022-08-25T10:46:45.302Z,3.72
2022-08-25T10:49:50.010Z,4.25
2022-08-25T10:52:44.569Z,4.38
2022-08-25T10:55:40.477Z,3.80
2022-08-25T10:59:07.541Z,3.90
2022-08-25T11:02:03.293Z,4.78
2022-08-25T11:05:03.017Z,4.18
2022-08-25T11:07:55.272Z,4.35
2022-08-25T11:11:02.827Z,4.20
2022-08-25T11:13:54.995Z,4.38
2022-08-25T11:16:51.373Z,4.32
2022-08-25T11:19:52.179Z,4.28
2022-08-25T11:22:46.306Z,4.40
2022-08-25T11:25:43.938Z,4.38
2022-08-25T11:28:56.621Z,4.82
2022-08-25T11:31:52.803Z,4.10
2022-08-25T11:34:43.858Z,3.95
2022-08-25T11:37:32.969Z,4.65
2022-08-25T11:40:30.703Z,4.13
2022-08-25T11:43:27.150Z,4.38
2022-08-25T11:46:18.180Z,4.03
2022-08-25T11:49:24.349Z,4.93
2022-08-25T11:52:30.890Z,4.85
2022-08-25T11:55:47.886Z,4.28
2022-08-25T11:58:53.793Z,4.85
2022-08-25T12:01:43.579Z,4.70
2022-08-25T12:04:43.994Z,4.55
2022-08-25T12:07:48.303Z,4.07
2022-08-25T12:10:55.719Z,5.30
2022-08-25T12:13:45.344Z,5.53
2022-08-25T12:16:35.869Z,6.10
2022-08-25T12:19:25.797Z,5.70
2022-08-25T12:22:16.352Z,5.03
2022-08-25T12:25:11.568Z,5.03
2022-08-25T12:28:07.284Z,5.35
2022-08-25T12:30:59.506Z,4.35
2022-08-25T12:34:13.782Z,4.88
2022-08-25T12:37:15.889Z,5.40
2022-08-25T12:40:06.277Z,5.13
2022-08-25T12:43:27.915Z,5.57
2022-08-25T12:46:27.941Z,4.80
2022-08-25T12:49:32.183Z,5.35
2022-08-25T12:52:22.106Z,4.20
2022-08-25T12:55:15.508Z,5.40
2022-08-25T12:58:05.914Z,4.68
2022-08-25T13:01:14.105Z,5.25
2022-08-25T13:04:19.535Z,5.15
2022-08-25T13:07:20.285Z,5.05
2022-08-25T13:10:27.201Z,5.45
2022-08-25T13:13:37.876Z,5.75
2022-08-25T13:16:29.742Z,5.05
2022-08-25T13:19:19.772Z,5.43
2022-08-25T13:22:17.624Z,5.93
2022-08-25T13:25:05.870Z,6.65
2022-08-25T13:28:00.753Z,6.75
2022-08-25T13:30:56.643Z,5.82
2022-08-25T13:33:55.499Z,6.18
2022-08-25T13:37:03.437Z,6.07
2022-08-25T13:39:56.755Z,5.97
2022-08-25T13:42:54.362Z,6.55
2022-08-25T13:45:47.101Z,6.63
2022-08-25T13:48:34.501Z,5.55
2022-08-25T13:51:24.114Z,5.63
2022-08-25T13:54:25.881Z,5.85
2022-08-25T13:57:16.023Z,6.20
2022-08-25T14:00:10.833Z,6.38
2022-08-25T14:02:59.240Z,6.32
2022-08-25T14:05:47.199Z,6.15
2022-08-25T14:08:36.266Z,6.05
2022-08-25T14:11:26.886Z,6.47
2022-08-25T14:14:31.085Z,5.72
2022-08-25T14:17:36.366Z,6.05
2022-08-25T14:20:29.420Z,6.40
2022-08-25T14:23:22.142Z,6.53
2022-08-25T14:26:10.055Z,6.75
2022-08-25T14:28:58.379Z,6.18
2022-08-25T14:31:46.999Z,6.57
2022-08-25T14:34:39.489Z,6.45
2022-08-25T14:37:29.173Z,6.88
2022-08-25T14:40:20.594Z,5.95
2022-08-25T14:43:09.487Z,5.50
2022-08-25T14:45:58.001Z,6.00
2022-08-25T14:48:46.891Z,5.78
2022-08-25T14:51:39.733Z,5.57
2022-08-25T14:54:28.487Z,5.97
2022-08-25T14:57:16.750Z,6.20
2022-08-25T15:00:08.991Z,6.20
2022-08-25T15:02:57.268Z,6.90
2022-08-25T15:05:44.546Z,6.18
2022-08-25T15:08:51.775Z,7.28
2022-08-25T15:11:41.767Z,7.25
2022-08-25T15:14:33.245Z,6.85
2022-08-25T15:17:21.095Z,6.95
2022-08-25T15:20:09.780Z,6.63
2022-08-25T15:22:58.704Z,6.43
2022-08-25T15:25:47.857Z,6.90
2022-08-25T15:28:35.323Z,6.88
2022-08-25T15:31:23.979Z,6.47
2022-08-25T15:34:11.927Z,7.45
2022-08-25T15:37:01.032Z,7.45
2022-08-25T15:39:50.316Z,7.80
2022-08-25T15:42:42.787Z,6.50
2022-08-25T15:45:35.965Z,7.28
2022-08-25T15:48:24.811Z,7.45
2022-08-25T15:51:12.330Z,7.03
2022-08-25T15:54:00.269Z,7.75
2022-08-25T15:56:47.955Z,7.50
2022-08-25T15:59:35.599Z,6.95
2022-08-25T16:02:23.179Z,7.32
2022-08-25T16:05:12.003Z,7.60
2022-08-25T16:08:01.027Z,7.53
2022-08-25T16:10:50.481Z,7.10
2022-08-25T16:13:39.562Z,7.55
2022-08-25T16:16:31.171Z,8.27
2022-08-25T16:19:20.301Z,8.02
2022-08-25T16:22:08.930Z,6.80
2022-08-25T16:24:58.641Z,7.28
2022-08-25T16:27:46.574Z,7.15
2022-08-25T16:30:34.130Z,7.25
2022-08-25T16:33:22.565Z,7.80
2022-08-25T16:36:14.747Z,7.05
2022-08-25T16:39:02.309Z,7.25
2022-08-25T16:41:50.152Z,6.80
2022-08-25T16:44:40.343Z,8.13
2022-08-25T16:47:28.526Z,7.65
2022-08-25T16:50:16.386Z,7.00
2022-08-25T16:53:23.845Z,6.85
2022-08-25T16:56:12.125Z,8.20
2022-08-25T16:59:00.819Z,7.43
2022-08-25T17:01:48.327Z,7.60
2022-08-25T17:04:36.215Z,7.32
2022-08-25T17:07:25.273Z,7.25
2022-08-25T17:10:13.054Z,8.10
2022-08-25T17:13:00.561Z,7.80
2022-08-25T17:15:52.455Z,7.40
2022-08-25T17:18:40.961Z,7.70
2022-08-25T17:21:31.298Z,7.53
2022-08-25T17:24:18.810Z,7.68
2022-08-25T17:27:07.004Z,7.10
2022-08-25T17:29:55.084Z,7.57
2022-08-25T17:32:43.351Z,7.05
2022-08-25T17:35:33.322Z,7.20
2022-08-25T17:38:28.544Z,6.95
2022-08-25T17:41:15.988Z,7.25
2022-08-25T17:44:03.624Z,7.18
2022-08-25T17:46:52.262Z,8.10
2022-08-25T17:49:40.067Z,7.35
2022-08-25T17:52:27.547Z,7.05
2022-08-25T17:55:14.973Z,8.15
2022-08-25T17:58:03.599Z,8.10
2022-08-25T18:00:51.035Z,9.02
2022-08-25T18:03:38.488Z,8.70
2022-08-25T18:06:26.639Z,7.80
2022-08-25T18:09:14.902Z,8.93
2022-08-25T18:12:02.404Z,7.93
2022-08-25T18:14:51.343Z,7.75
2022-08-25T18:17:38.934Z,8.07
2022-08-25T18:20:27.299Z,7.88
2022-08-25T18:23:16.004Z,8.23
2022-08-25T18:26:04.351Z,7.40
2022-08-25T18:28:54.372Z,9.50
2022-08-25T18:31:42.561Z,9.20
2022-08-25T18:34:30.570Z,8.40
2022-08-25T18:37:36.954Z,7.53
2022-08-25T18:40:24.819Z,8.60
2022-08-25T18:43:13.309Z,8.70
2022-08-25T18:46:00.853Z,7.93
2022-08-25T18:48:48.752Z,7.95
2022-08-25T18:51:39.947Z,8.07
2022-08-25T18:54:27.825Z,8.50
2022-08-25T18:59:54.196Z,8.52
2022-08-25T19:02:41.947Z,8.02
2022-08-25T19:05:35.913Z,8.60
2022-08-25T19:08:23.514Z,8.52
2022-08-25T19:11:11.187Z,8.43
2022-08-25T19:13:59.873Z,7.97
2022-08-25T19:16:47.706Z,10.48
2022-08-25T19:19:35.078Z,8.40
2022-08-25T19:22:40.589Z,8.45
2022-08-25T19:25:33.096Z,9.23
2022-08-25T19:28:22.326Z,8.55
2022-08-25T19:31:10.350Z,9.30
2022-08-25T19:33:59.085Z,8.95
2022-08-25T19:36:46.911Z,9.38
2022-08-25T19:39:36.079Z,9.85
2022-08-25T19:42:37.008Z,9.40
2022-08-25T19:45:26.403Z,9.70
2022-08-25T19:48:14.562Z,8.82
2022-08-25T19:51:02.465Z,9.65
2022-08-25T19:53:54.734Z,9.63
2022-08-25T19:56:55.072Z,9.48
2022-08-25T19:59:45.486Z,8.93
2022-08-25T20:02:33.562Z,9.43
2022-08-25T20:05:23.880Z,9.23
2022-08-25T20:08:11.367Z,10.10
2022-08-25T20:10:59.253Z,9.82
2022-08-25T20:13:46.756Z,9.38
2022-08-25T20:16:37.870Z,9.38
2022-08-25T20:19:25.739Z,10.52
2022-08-25T20:22:18.117Z,10.50
2022-08-25T20:25:13.135Z,10.23
2022-08-25T20:28:07.638Z,9.73
2022-08-25T20:31:05.385Z,10.05
2022-08-25T20:33:58.515Z,8.95
2022-08-25T20:36:50.356Z,10.10
2022-08-25T20:39:39.334Z,9.75
2022-08-25T20:42:27.163Z,9.50
2022-08-25T20:45:27.800Z,9.73
2022-08-25T20:48:29.541Z,9.68
2022-08-25T20:51:18.773Z,9.70
2022-08-25T20:54:07.905Z,10.18
2022-08-25T20:56:58.882Z,10.77
2022-08-25T20:59:47.621Z,10.20
2022-08-25T21:02:38.402Z,10.57
2022-08-25T21:05:29.258Z,10.43
2022-08-25T21:08:26.658Z,10.48
2022-08-25T21:11:17.843Z,10.88
2022-08-25T21:14:06.661Z,10.40
2022-08-25T21:16:54.153Z,10.60
2022-08-25T21:19:42.327Z,10.32
2022-08-25T21:22:30.669Z,10.60
2022-08-25T21:25:19.062Z,11.27
2022-08-25T21:28:09.953Z,10.68
2022-08-25T21:30:58.076Z,10.63
2022-08-25T21:34:03.623Z,10.25
2022-08-25T21:36:57.253Z,12.07
2022-08-25T21:39:50.741Z,11.40
2022-08-25T21:42:39.145Z,11.15
2022-08-25T21:45:26.721Z,11.20
2022-08-25T21:48:23.947Z,11.55
2022-08-25T21:51:13.624Z,11.30
2022-08-25T21:54:11.525Z,10.52
2022-08-25T21:57:01.252Z,11.35
2022-08-25T21:59:49.233Z,10.38
2022-08-25T22:02:36.554Z,11.40
2022-08-25T22:05:24.269Z,12.00
2022-08-25T22:08:11.771Z,11.40
2022-08-25T22:11:00.680Z,11.05
2022-08-25T22:13:48.516Z,11.50
2022-08-25T22:16:38.882Z,11.13
2022-08-25T22:19:26.820Z,10.27
2022-08-25T22:22:16.231Z,11.00
2022-08-25T22:25:08.953Z,11.20
2022-08-25T22:28:15.132Z,10.85
2022-08-25T22:31:08.035Z,10.50
2022-08-25T22:34:12.970Z,10.27
2022-08-25T22:37:09.903Z,10.00
2022-08-25T22:43:28.665Z,10.57
2022-08-25T22:46:24.638Z,11.73
2022-08-25T22:49:19.543Z,10.73
2022-08-25T22:52:09.451Z,10.85
2022-08-25T22:55:00.267Z,11.57
2022-08-25T22:57:48.410Z,11.65
2022-08-25T23:00:38.836Z,10.50
2022-08-25T23:03:27.099Z,12.02
2022-08-25T23:06:19.657Z,10.82
2022-08-25T23:09:10.883Z,11.38
2022-08-25T23:11:59.102Z,11.98
2022-08-25T23:14:46.838Z,11.98
2022-08-25T23:17:34.360Z,11.18
2022-08-25T23:20:45.086Z,11.52
2022-08-25T23:23:36.985Z,12.27
2022-08-25T23:26:25.110Z,11.65
2022-08-25T23:29:18.795Z,12.10
2022-08-25T23:32:10.877Z,11.20
2022-08-25T23:35:02.052Z,11.13
2022-08-25T23:37:50.248Z,11.73
2022-08-25T23:40:43.849Z,11.43
2022-08-25T23:43:32.521Z,12.27
2022-08-25T23:46:21.720Z,11.88
2022-08-25T23:49:09.473Z,11.27
2022-08-25T23:51:56.989Z,12.07
2022-08-25T23:54:47.536Z,11.77
2022-08-25T23:57:35.259Z,12.65
